EAG5559 SBRF-SBSL
Flight info
| Callsign | EAG5559 |
|---|---|
| Flight time | 1h 52m |
| Altitude | 38000 |
| Route | IROSI DCT UGTUN UM791 ISUGI DCT VULBU DCT PANUP |
| Aircraft | A20N/M-SADE1E2E3GHIJ3J5M1P2RWXY/LB2D1 |
Departure
| Time | 2026-04-21 03:58 |
|---|---|
| Airport | Recife/Guararapes - Gilberto Freyre International Airport (SBRF) |
Arrival
| Time | 2026-04-21 05:50 |
|---|---|
| Airport | Marechal Cunha Machado International Airport (SBSL) |
| Time | Latitude | Longitude | Altitude | Speed | Heading |
|---|---|---|---|---|---|
| 2026-04-21 03:36 | -8.13143 | -34.91924 | 52 ft | 0 kts | 72° |
| 2026-04-21 03:48 | -8.13146 | -34.91933 | 52 ft | 3 kts | 72° |
| 2026-04-21 03:48 | -8.13151 | -34.91950 | 44 ft | 2 kts | 71° |
| 2026-04-21 03:48 | -8.13156 | -34.91967 | 43 ft | 3 kts | 50° |
| 2026-04-21 03:49 | -8.13166 | -34.91980 | 45 ft | 3 kts | 16° |
| 2026-04-21 03:49 | -8.13182 | -34.91984 | 43 ft | 3 kts | 348° |
| 2026-04-21 03:49 | -8.13201 | -34.91979 | 44 ft | 3 kts | 341° |
| 2026-04-21 03:49 | -8.13211 | -34.91976 | 43 ft | 1 kts | 342° |
| 2026-04-21 03:50 | -8.13212 | -34.91976 | 43 ft | 0 kts | 342° |
| 2026-04-21 03:52 | -8.13199 | -34.91980 | 44 ft | 6 kts | 342° |
| 2026-04-21 03:52 | -8.13133 | -34.92002 | 49 ft | 12 kts | 342° |
| 2026-04-21 03:52 | -8.13053 | -34.92028 | 47 ft | 12 kts | 342° |
| 2026-04-21 03:53 | -8.12973 | -34.92054 | 49 ft | 12 kts | 341° |
| 2026-04-21 03:53 | -8.12887 | -34.92084 | 51 ft | 14 kts | 341° |
| 2026-04-21 03:53 | -8.12778 | -34.92121 | 51 ft | 18 kts | 342° |
| 2026-04-21 03:53 | -8.12658 | -34.92159 | 52 ft | 18 kts | 342° |
| 2026-04-21 03:54 | -8.12535 | -34.92200 | 50 ft | 19 kts | 341° |
| 2026-04-21 03:54 | -8.12401 | -34.92246 | 48 ft | 21 kts | 341° |
| 2026-04-21 03:54 | -8.12261 | -34.92295 | 48 ft | 22 kts | 340° |
| 2026-04-21 03:54 | -8.12110 | -34.92341 | 47 ft | 24 kts | 343° |
| 2026-04-21 03:55 | -8.11945 | -34.92395 | 47 ft | 25 kts | 341° |
| 2026-04-21 03:55 | -8.11778 | -34.92452 | 46 ft | 26 kts | 342° |
| 2026-04-21 03:55 | -8.11622 | -34.92511 | 49 ft | 22 kts | 334° |
| 2026-04-21 03:55 | -8.11504 | -34.92597 | 51 ft | 21 kts | 321° |
| 2026-04-21 03:56 | -8.11470 | -34.92681 | 47 ft | 12 kts | 245° |
| 2026-04-21 03:56 | -8.11525 | -34.92684 | 46 ft | 7 kts | 159° |
| 2026-04-21 03:56 | -8.11532 | -34.92682 | 48 ft | 0 kts | 160° |
| 2026-04-21 03:57 | -8.11533 | -34.92682 | 48 ft | 3 kts | 160° |
| 2026-04-21 03:57 | -8.11776 | -34.92601 | 48 ft | 83 kts | 162° |
| 2026-04-21 03:57 | -8.12606 | -34.92327 | 56 ft | 163 kts | 162° |
| 2026-04-21 03:58 | -8.13834 | -34.91917 | 376 ft | 198 kts | 161° |
| 2026-04-21 03:58 | -8.15207 | -34.91448 | 821 ft | 220 kts | 161° |
| 2026-04-21 03:58 | -8.16711 | -34.91103 | 1592 ft | 218 kts | 180° |
| 2026-04-21 03:58 | -8.18137 | -34.91504 | 2532 ft | 216 kts | 209° |
| 2026-04-21 03:59 | -8.19191 | -34.92606 | 3289 ft | 226 kts | 239° |
| 2026-04-21 03:59 | -8.19612 | -34.94147 | 3998 ft | 233 kts | 263° |
| 2026-04-21 03:59 | -8.19724 | -34.95801 | 4703 ft | 238 kts | 264° |
| 2026-04-21 04:00 | -8.20342 | -34.99121 | 5803 ft | 245 kts | 252° |
| 2026-04-21 04:00 | -8.20875 | -35.00726 | 5934 ft | 243 kts | 248° |
| 2026-04-21 04:00 | -8.21483 | -35.02319 | 6010 ft | 244 kts | 246° |
| 2026-04-21 04:00 | -8.22111 | -35.03903 | 6010 ft | 243 kts | 246° |
| 2026-04-21 04:01 | -8.22739 | -35.05488 | 6008 ft | 243 kts | 246° |
| 2026-04-21 04:01 | -8.23341 | -35.07086 | 6002 ft | 245 kts | 251° |
| 2026-04-21 04:01 | -8.23426 | -35.08839 | 6081 ft | 261 kts | 281° |
| 2026-04-21 04:01 | -8.22663 | -35.10576 | 6298 ft | 283 kts | 307° |
| 2026-04-21 04:02 | -8.21167 | -35.11856 | 6773 ft | 290 kts | 334° |
| 2026-04-21 04:02 | -8.19218 | -35.12443 | 7429 ft | 290 kts | 352° |
| 2026-04-21 04:02 | -8.17247 | -35.12800 | 8023 ft | 294 kts | 349° |
| 2026-04-21 04:02 | -8.15264 | -35.13381 | 8646 ft | 298 kts | 341° |
| 2026-04-21 04:03 | -8.13353 | -35.14213 | 9291 ft | 301 kts | 335° |
| 2026-04-21 04:03 | -8.11494 | -35.15209 | 9938 ft | 304 kts | 331° |
| 2026-04-21 04:03 | -8.09630 | -35.16296 | 10285 ft | 318 kts | 330° |
| 2026-04-21 04:03 | -8.07669 | -35.17469 | 10463 ft | 336 kts | 330° |
| 2026-04-21 04:04 | -8.05603 | -35.18705 | 10661 ft | 353 kts | 330° |
| 2026-04-21 04:04 | -8.03471 | -35.19971 | 11165 ft | 356 kts | 330° |
| 2026-04-21 04:04 | -8.01349 | -35.21224 | 11726 ft | 359 kts | 330° |
| 2026-04-21 04:04 | -7.99087 | -35.22362 | 12283 ft | 361 kts | 339° |
| 2026-04-21 04:05 | -7.96694 | -35.23133 | 12853 ft | 362 kts | 347° |
| 2026-04-21 04:05 | -7.94256 | -35.23676 | 13395 ft | 365 kts | 348° |
| 2026-04-21 04:05 | -7.91769 | -35.24240 | 13933 ft | 367 kts | 348° |
| 2026-04-21 04:05 | -7.89272 | -35.24818 | 14439 ft | 369 kts | 348° |
| 2026-04-21 04:06 | -7.86755 | -35.25407 | 14951 ft | 370 kts | 348° |
| 2026-04-21 04:06 | -7.84239 | -35.25998 | 15435 ft | 373 kts | 348° |
| 2026-04-21 04:06 | -7.81710 | -35.26592 | 15932 ft | 375 kts | 348° |
| 2026-04-21 04:06 | -7.79185 | -35.27184 | 16413 ft | 376 kts | 348° |
| 2026-04-21 04:07 | -7.76629 | -35.27782 | 16886 ft | 379 kts | 348° |
| 2026-04-21 04:07 | -7.74048 | -35.28385 | 17349 ft | 381 kts | 348° |
| 2026-04-21 04:07 | -7.71461 | -35.28990 | 17823 ft | 383 kts | 348° |
| 2026-04-21 04:07 | -7.68856 | -35.29598 | 18280 ft | 385 kts | 348° |
| 2026-04-21 04:08 | -7.66236 | -35.30210 | 18670 ft | 388 kts | 348° |
| 2026-04-21 04:08 | -7.63597 | -35.30871 | 19021 ft | 391 kts | 343° |
| 2026-04-21 04:08 | -7.61107 | -35.32007 | 19399 ft | 396 kts | 330° |
| 2026-04-21 04:08 | -7.58913 | -35.33700 | 19807 ft | 400 kts | 317° |
| 2026-04-21 04:09 | -7.57014 | -35.35768 | 20186 ft | 403 kts | 313° |
| 2026-04-21 04:09 | -7.55120 | -35.37868 | 20572 ft | 406 kts | 313° |
| 2026-04-21 04:09 | -7.53202 | -35.39973 | 20971 ft | 408 kts | 314° |
| 2026-04-21 04:09 | -7.51290 | -35.42057 | 21369 ft | 411 kts | 314° |
| 2026-04-21 04:10 | -7.49337 | -35.44180 | 21776 ft | 414 kts | 314° |
| 2026-04-21 04:10 | -7.47376 | -35.46310 | 22168 ft | 416 kts | 314° |
| 2026-04-21 04:10 | -7.45396 | -35.48459 | 22569 ft | 419 kts | 313° |
| 2026-04-21 04:10 | -7.43411 | -35.50615 | 22965 ft | 421 kts | 313° |
| 2026-04-21 04:11 | -7.41519 | -35.52882 | 23340 ft | 424 kts | 307° |
| 2026-04-21 04:11 | -7.39891 | -35.55373 | 23710 ft | 427 kts | 302° |
| 2026-04-21 04:11 | -7.38307 | -35.57907 | 24052 ft | 428 kts | 303° |
| 2026-04-21 04:11 | -7.36704 | -35.60449 | 24444 ft | 430 kts | 303° |
| 2026-04-21 04:12 | -7.35092 | -35.62992 | 24810 ft | 431 kts | 303° |
| 2026-04-21 04:12 | -7.33473 | -35.65544 | 25160 ft | 433 kts | 303° |
| 2026-04-21 04:12 | -7.31844 | -35.68109 | 25522 ft | 435 kts | 303° |
| 2026-04-21 04:12 | -7.30210 | -35.70683 | 25855 ft | 437 kts | 303° |
| 2026-04-21 04:13 | -7.28570 | -35.73265 | 26209 ft | 438 kts | 303° |
| 2026-04-21 04:13 | -7.26924 | -35.75857 | 26567 ft | 440 kts | 302° |
| 2026-04-21 04:13 | -7.25272 | -35.78457 | 26901 ft | 442 kts | 302° |
| 2026-04-21 04:13 | -7.23611 | -35.81072 | 27238 ft | 444 kts | 302° |
| 2026-04-21 04:14 | -7.21942 | -35.83699 | 27552 ft | 446 kts | 302° |
| 2026-04-21 04:14 | -7.20289 | -35.86300 | 27887 ft | 448 kts | 302° |
| 2026-04-21 04:14 | -7.18605 | -35.88950 | 28219 ft | 450 kts | 302° |
| 2026-04-21 04:14 | -7.16916 | -35.91608 | 28551 ft | 452 kts | 302° |
| 2026-04-21 04:15 | -7.15216 | -35.94282 | 28857 ft | 454 kts | 302° |
| 2026-04-21 04:15 | -7.13510 | -35.96965 | 29182 ft | 456 kts | 302° |
| 2026-04-21 04:15 | -7.11799 | -35.99656 | 29480 ft | 458 kts | 302° |
| 2026-04-21 04:15 | -7.10072 | -36.02372 | 29790 ft | 460 kts | 302° |
| 2026-04-21 04:16 | -7.08344 | -36.05089 | 30108 ft | 462 kts | 302° |
| 2026-04-21 04:16 | -7.06630 | -36.07783 | 30385 ft | 464 kts | 302° |
| 2026-04-21 04:16 | -7.04862 | -36.10563 | 30664 ft | 466 kts | 302° |
| 2026-04-21 04:16 | -7.03104 | -36.13326 | 30958 ft | 468 kts | 302° |
| 2026-04-21 04:17 | -7.01346 | -36.16088 | 31245 ft | 470 kts | 302° |
| 2026-04-21 04:17 | -6.99611 | -36.18814 | 31541 ft | 472 kts | 302° |
| 2026-04-21 04:17 | -6.97821 | -36.21625 | 31825 ft | 474 kts | 303° |
| 2026-04-21 04:17 | -6.96038 | -36.24426 | 32109 ft | 476 kts | 303° |
| 2026-04-21 04:18 | -6.94245 | -36.27241 | 32376 ft | 478 kts | 303° |
| 2026-04-21 04:18 | -6.92445 | -36.30066 | 32620 ft | 480 kts | 303° |
| 2026-04-21 04:18 | -6.90643 | -36.32895 | 32815 ft | 482 kts | 303° |
| 2026-04-21 04:18 | -6.88769 | -36.35695 | 32982 ft | 483 kts | 307° |
| 2026-04-21 04:19 | -6.86648 | -36.38328 | 33151 ft | 484 kts | 310° |
| 2026-04-21 04:19 | -6.84496 | -36.40944 | 33299 ft | 485 kts | 310° |
| 2026-04-21 04:19 | -6.82343 | -36.43575 | 33443 ft | 486 kts | 310° |
| 2026-04-21 04:19 | -6.80223 | -36.46172 | 33614 ft | 486 kts | 310° |
| 2026-04-21 04:20 | -6.78078 | -36.48801 | 33808 ft | 486 kts | 310° |
| 2026-04-21 04:20 | -6.75904 | -36.51464 | 33985 ft | 485 kts | 310° |
| 2026-04-21 04:20 | -6.73764 | -36.54087 | 34165 ft | 485 kts | 310° |
| 2026-04-21 04:20 | -6.71624 | -36.56708 | 34341 ft | 484 kts | 310° |
| 2026-04-21 04:21 | -6.69515 | -36.59290 | 34506 ft | 484 kts | 310° |
| 2026-04-21 04:21 | -6.67383 | -36.61900 | 34681 ft | 483 kts | 310° |
| 2026-04-21 04:21 | -6.65250 | -36.64513 | 34868 ft | 482 kts | 310° |
| 2026-04-21 04:21 | -6.63122 | -36.67122 | 35032 ft | 482 kts | 310° |
| 2026-04-21 04:22 | -6.61004 | -36.69718 | 35212 ft | 481 kts | 310° |
| 2026-04-21 04:22 | -6.58879 | -36.72323 | 35393 ft | 481 kts | 310° |
| 2026-04-21 04:22 | -6.56756 | -36.74924 | 35583 ft | 480 kts | 310° |
| 2026-04-21 04:22 | -6.54637 | -36.77520 | 35774 ft | 479 kts | 310° |
| 2026-04-21 04:23 | -6.52517 | -36.80112 | 35975 ft | 479 kts | 310° |
| 2026-04-21 04:23 | -6.50408 | -36.82686 | 36179 ft | 478 kts | 310° |
| 2026-04-21 04:23 | -6.48289 | -36.85273 | 36378 ft | 477 kts | 310° |
| 2026-04-21 04:23 | -6.46178 | -36.87849 | 36579 ft | 477 kts | 310° |
| 2026-04-21 04:24 | -6.44071 | -36.90421 | 36767 ft | 476 kts | 310° |
| 2026-04-21 04:24 | -6.41964 | -36.92994 | 36952 ft | 476 kts | 310° |
| 2026-04-21 04:24 | -6.39863 | -36.95557 | 37154 ft | 475 kts | 310° |
| 2026-04-21 04:24 | -6.37764 | -36.98119 | 37342 ft | 475 kts | 310° |
| 2026-04-21 04:25 | -6.35670 | -37.00679 | 37525 ft | 474 kts | 310° |
| 2026-04-21 04:25 | -6.33573 | -37.03242 | 37707 ft | 474 kts | 310° |
| 2026-04-21 04:25 | -6.31507 | -37.05767 | 37872 ft | 473 kts | 310° |
| 2026-04-21 04:26 | -6.27327 | -37.10874 | 37928 ft | 472 kts | 310° |
| 2026-04-21 04:26 | -6.23148 | -37.15976 | 37934 ft | 472 kts | 310° |
| 2026-04-21 04:27 | -6.18977 | -37.21070 | 37935 ft | 472 kts | 310° |
| 2026-04-21 04:27 | -6.14817 | -37.26147 | 37935 ft | 472 kts | 310° |
| 2026-04-21 04:28 | -6.10633 | -37.31253 | 37933 ft | 473 kts | 310° |
| 2026-04-21 04:28 | -6.07127 | -37.35529 | 37935 ft | 473 kts | 310° |
| 2026-04-21 04:29 | -6.02979 | -37.40588 | 37933 ft | 474 kts | 310° |
| 2026-04-21 04:29 | -5.98757 | -37.45723 | 37935 ft | 474 kts | 310° |
| 2026-04-21 04:30 | -5.94566 | -37.50811 | 37935 ft | 475 kts | 310° |
| 2026-04-21 04:30 | -5.90336 | -37.55946 | 37936 ft | 475 kts | 310° |
| 2026-04-21 04:31 | -5.86129 | -37.61055 | 37938 ft | 475 kts | 310° |
| 2026-04-21 04:31 | -5.81907 | -37.66178 | 37935 ft | 476 kts | 310° |
| 2026-04-21 04:32 | -5.77665 | -37.71273 | 37938 ft | 476 kts | 310° |
| 2026-04-21 04:32 | -5.73409 | -37.76375 | 37935 ft | 476 kts | 310° |
| 2026-04-21 04:33 | -5.69179 | -37.81451 | 37940 ft | 477 kts | 310° |
| 2026-04-21 04:33 | -5.64920 | -37.86563 | 37938 ft | 477 kts | 310° |
| 2026-04-21 04:34 | -5.60658 | -37.91676 | 37939 ft | 477 kts | 310° |
| 2026-04-21 04:34 | -5.56397 | -37.96787 | 37940 ft | 477 kts | 310° |
| 2026-04-21 04:35 | -5.52146 | -38.01886 | 37953 ft | 477 kts | 310° |
| 2026-04-21 04:35 | -5.47866 | -38.07006 | 37928 ft | 477 kts | 312° |
| 2026-04-21 04:36 | -5.43137 | -38.11644 | 37918 ft | 476 kts | 310° |
| 2026-04-21 04:36 | -5.39789 | -38.17318 | 37927 ft | 478 kts | 294° |
| 2026-04-21 04:37 | -5.37293 | -38.23505 | 37932 ft | 478 kts | 292° |
| 2026-04-21 04:37 | -5.34845 | -38.29720 | 37931 ft | 479 kts | 292° |
| 2026-04-21 04:38 | -5.32368 | -38.35884 | 37931 ft | 479 kts | 292° |
| 2026-04-21 04:38 | -5.29842 | -38.42127 | 37931 ft | 480 kts | 292° |
| 2026-04-21 04:39 | -5.27325 | -38.48342 | 37922 ft | 480 kts | 292° |
| 2026-04-21 04:39 | -5.24813 | -38.54545 | 37927 ft | 480 kts | 292° |
| 2026-04-21 04:40 | -5.22315 | -38.60713 | 37948 ft | 480 kts | 292° |
| 2026-04-21 04:40 | -5.19801 | -38.66922 | 37963 ft | 479 kts | 292° |
| 2026-04-21 04:41 | -5.17337 | -38.73003 | 37936 ft | 480 kts | 292° |
| 2026-04-21 04:41 | -5.14817 | -38.79215 | 37936 ft | 480 kts | 292° |
| 2026-04-21 04:42 | -5.12318 | -38.85376 | 37942 ft | 479 kts | 292° |
| 2026-04-21 04:42 | -5.09802 | -38.91576 | 37937 ft | 479 kts | 292° |
| 2026-04-21 04:43 | -5.07291 | -38.97764 | 37941 ft | 479 kts | 292° |
| 2026-04-21 04:43 | -5.04777 | -39.03959 | 37938 ft | 479 kts | 292° |
| 2026-04-21 04:44 | -5.02262 | -39.10152 | 37934 ft | 479 kts | 292° |
| 2026-04-21 04:44 | -4.99751 | -39.16336 | 37937 ft | 478 kts | 292° |
| 2026-04-21 04:45 | -4.97257 | -39.22472 | 37941 ft | 478 kts | 292° |
| 2026-04-21 04:45 | -4.94745 | -39.28653 | 37938 ft | 478 kts | 292° |
| 2026-04-21 04:46 | -4.92226 | -39.34849 | 37937 ft | 478 kts | 292° |
| 2026-04-21 04:46 | -4.89710 | -39.41037 | 37941 ft | 478 kts | 292° |
| 2026-04-21 04:47 | -4.87195 | -39.47220 | 37937 ft | 478 kts | 292° |
| 2026-04-21 04:47 | -4.84690 | -39.53374 | 37941 ft | 478 kts | 292° |
| 2026-04-21 04:48 | -4.82173 | -39.59558 | 37939 ft | 479 kts | 292° |
| 2026-04-21 04:48 | -4.79654 | -39.65744 | 37937 ft | 479 kts | 292° |
| 2026-04-21 04:49 | -4.77132 | -39.71937 | 37943 ft | 479 kts | 292° |
| 2026-04-21 04:49 | -4.74609 | -39.78127 | 37946 ft | 479 kts | 292° |
| 2026-04-21 04:50 | -4.72088 | -39.84313 | 37941 ft | 479 kts | 292° |
| 2026-04-21 04:50 | -4.69580 | -39.90466 | 37944 ft | 479 kts | 292° |
| 2026-04-21 04:51 | -4.67056 | -39.96657 | 37944 ft | 479 kts | 292° |
| 2026-04-21 04:51 | -4.64537 | -40.02830 | 37940 ft | 479 kts | 292° |
| 2026-04-21 04:52 | -4.62008 | -40.09029 | 37941 ft | 479 kts | 292° |
| 2026-04-21 04:52 | -4.59479 | -40.15225 | 37940 ft | 480 kts | 292° |
| 2026-04-21 04:53 | -4.56948 | -40.21425 | 37940 ft | 480 kts | 292° |
| 2026-04-21 04:53 | -4.54439 | -40.27569 | 37935 ft | 480 kts | 292° |
| 2026-04-21 04:54 | -4.51904 | -40.33777 | 37932 ft | 480 kts | 292° |
| 2026-04-21 04:54 | -4.49371 | -40.39975 | 37935 ft | 480 kts | 292° |
| 2026-04-21 04:55 | -4.46839 | -40.46171 | 37932 ft | 480 kts | 292° |
| 2026-04-21 04:55 | -4.44304 | -40.52372 | 37935 ft | 480 kts | 292° |
| 2026-04-21 04:56 | -4.41775 | -40.58555 | 37941 ft | 480 kts | 292° |
| 2026-04-21 04:56 | -4.39241 | -40.64749 | 37941 ft | 480 kts | 292° |
| 2026-04-21 04:57 | -4.36724 | -40.70902 | 37943 ft | 480 kts | 292° |
| 2026-04-21 04:57 | -4.34188 | -40.77098 | 37948 ft | 481 kts | 292° |
| 2026-04-21 04:58 | -4.31646 | -40.83310 | 37949 ft | 481 kts | 292° |
| 2026-04-21 04:58 | -4.29111 | -40.89501 | 37949 ft | 481 kts | 292° |
| 2026-04-21 04:59 | -4.26583 | -40.95665 | 37950 ft | 473 kts | 291° |
| 2026-04-21 04:59 | -4.24088 | -41.01756 | 37949 ft | 473 kts | 291° |
| 2026-04-21 05:00 | -4.21589 | -41.07856 | 37949 ft | 473 kts | 291° |
| 2026-04-21 05:00 | -4.17853 | -41.16971 | 37944 ft | 473 kts | 291° |
| 2026-04-21 05:01 | -4.15353 | -41.23070 | 37938 ft | 473 kts | 291° |
| 2026-04-21 05:01 | -4.12855 | -41.29161 | 37937 ft | 473 kts | 291° |
| 2026-04-21 05:02 | -4.10355 | -41.35255 | 37932 ft | 472 kts | 291° |
| 2026-04-21 05:02 | -4.07857 | -41.41343 | 37933 ft | 472 kts | 291° |
| 2026-04-21 05:03 | -4.05374 | -41.47391 | 37928 ft | 472 kts | 291° |
| 2026-04-21 05:03 | -4.02881 | -41.53465 | 37921 ft | 472 kts | 291° |
| 2026-04-21 05:04 | -4.00374 | -41.59571 | 37923 ft | 472 kts | 292° |
| 2026-04-21 05:04 | -3.97875 | -41.65655 | 37925 ft | 473 kts | 292° |
| 2026-04-21 05:05 | -3.95364 | -41.71766 | 37924 ft | 475 kts | 292° |
| 2026-04-21 05:05 | -3.92846 | -41.77893 | 37927 ft | 476 kts | 292° |
| 2026-04-21 05:06 | -3.90323 | -41.84031 | 37924 ft | 477 kts | 292° |
| 2026-04-21 05:06 | -3.87797 | -41.90176 | 37929 ft | 478 kts | 292° |
| 2026-04-21 05:07 | -3.85265 | -41.96332 | 37926 ft | 478 kts | 292° |
| 2026-04-21 05:07 | -3.82729 | -42.02499 | 37923 ft | 479 kts | 292° |
| 2026-04-21 05:08 | -3.80187 | -42.08676 | 37926 ft | 480 kts | 292° |
| 2026-04-21 05:08 | -3.77657 | -42.14825 | 37929 ft | 481 kts | 292° |
| 2026-04-21 05:09 | -3.75108 | -42.21022 | 37926 ft | 481 kts | 292° |
| 2026-04-21 05:09 | -3.72551 | -42.27235 | 37922 ft | 482 kts | 292° |
| 2026-04-21 05:10 | -3.69991 | -42.33453 | 37921 ft | 483 kts | 292° |
| 2026-04-21 05:10 | -3.66889 | -42.39431 | 37923 ft | 484 kts | 303° |
| 2026-04-21 05:11 | -3.63775 | -42.44081 | 37927 ft | 484 kts | 304° |
| 2026-04-21 05:11 | -3.59413 | -42.50648 | 37927 ft | 485 kts | 304° |
| 2026-04-21 05:12 | -3.55701 | -42.56245 | 37925 ft | 485 kts | 304° |
| 2026-04-21 05:12 | -3.52573 | -42.60957 | 37929 ft | 485 kts | 304° |
| 2026-04-21 05:13 | -3.48834 | -42.66587 | 37928 ft | 485 kts | 304° |
| 2026-04-21 05:13 | -3.45113 | -42.72187 | 37931 ft | 485 kts | 304° |
| 2026-04-21 05:14 | -3.41376 | -42.77813 | 37708 ft | 483 kts | 304° |
| 2026-04-21 05:14 | -3.39521 | -42.80605 | 37199 ft | 481 kts | 304° |
| 2026-04-21 05:14 | -3.37668 | -42.83394 | 36477 ft | 482 kts | 304° |
| 2026-04-21 05:15 | -3.35808 | -42.86193 | 35710 ft | 484 kts | 304° |
| 2026-04-21 05:15 | -3.33948 | -42.88992 | 35143 ft | 477 kts | 304° |
| 2026-04-21 05:15 | -3.32136 | -42.91719 | 34714 ft | 464 kts | 304° |
| 2026-04-21 05:15 | -3.30355 | -42.94399 | 33856 ft | 463 kts | 304° |
| 2026-04-21 05:16 | -3.28594 | -42.97047 | 32749 ft | 466 kts | 304° |
| 2026-04-21 05:16 | -3.26755 | -42.99812 | 31591 ft | 469 kts | 304° |
| 2026-04-21 05:16 | -3.24945 | -43.02532 | 30636 ft | 468 kts | 304° |
| 2026-04-21 05:16 | -3.23179 | -43.05188 | 29923 ft | 461 kts | 304° |
| 2026-04-21 05:17 | -3.21413 | -43.07845 | 29063 ft | 455 kts | 304° |
| 2026-04-21 05:17 | -3.19673 | -43.10464 | 28189 ft | 449 kts | 304° |
| 2026-04-21 05:17 | -3.17953 | -43.13050 | 27355 ft | 444 kts | 304° |
| 2026-04-21 05:17 | -3.16246 | -43.15617 | 26526 ft | 439 kts | 304° |
| 2026-04-21 05:18 | -3.14567 | -43.18142 | 25716 ft | 434 kts | 304° |
| 2026-04-21 05:18 | -3.12900 | -43.20648 | 24903 ft | 430 kts | 304° |
| 2026-04-21 05:18 | -3.11249 | -43.23130 | 24107 ft | 426 kts | 304° |
| 2026-04-21 05:18 | -3.09617 | -43.25582 | 23283 ft | 422 kts | 304° |
| 2026-04-21 05:19 | -3.08000 | -43.28012 | 22402 ft | 416 kts | 304° |
| 2026-04-21 05:19 | -3.06406 | -43.30410 | 21790 ft | 407 kts | 304° |
| 2026-04-21 05:19 | -3.04836 | -43.32768 | 21218 ft | 408 kts | 304° |
| 2026-04-21 05:19 | -3.03266 | -43.35126 | 20684 ft | 406 kts | 304° |
| 2026-04-21 05:20 | -3.01731 | -43.37433 | 20074 ft | 400 kts | 304° |
| 2026-04-21 05:20 | -3.00203 | -43.39729 | 19521 ft | 394 kts | 304° |
| 2026-04-21 05:20 | -2.98683 | -43.42013 | 19036 ft | 393 kts | 304° |
| 2026-04-21 05:20 | -2.97166 | -43.44293 | 18546 ft | 391 kts | 304° |
| 2026-04-21 05:21 | -2.95667 | -43.46545 | 17907 ft | 387 kts | 304° |
| 2026-04-21 05:21 | -2.94189 | -43.48764 | 17343 ft | 380 kts | 304° |
| 2026-04-21 05:21 | -2.92720 | -43.50970 | 16816 ft | 380 kts | 304° |
| 2026-04-21 05:21 | -2.91256 | -43.53168 | 16259 ft | 377 kts | 304° |
| 2026-04-21 05:22 | -2.89811 | -43.55338 | 15717 ft | 372 kts | 304° |
| 2026-04-21 05:22 | -2.88389 | -43.57474 | 15176 ft | 367 kts | 304° |
| 2026-04-21 05:22 | -2.86997 | -43.59564 | 14645 ft | 363 kts | 304° |
| 2026-04-21 05:22 | -2.85587 | -43.61682 | 14112 ft | 359 kts | 304° |
| 2026-04-21 05:23 | -2.84223 | -43.63729 | 13575 ft | 355 kts | 304° |
| 2026-04-21 05:23 | -2.82855 | -43.65783 | 13047 ft | 353 kts | 304° |
| 2026-04-21 05:23 | -2.81493 | -43.67830 | 12529 ft | 353 kts | 304° |
| 2026-04-21 05:23 | -2.80135 | -43.69868 | 12016 ft | 351 kts | 304° |
| 2026-04-21 05:24 | -2.78789 | -43.71889 | 11507 ft | 348 kts | 304° |
| 2026-04-21 05:24 | -2.77451 | -43.73897 | 11005 ft | 345 kts | 304° |
| 2026-04-21 05:24 | -2.76124 | -43.75890 | 10514 ft | 342 kts | 304° |
| 2026-04-21 05:24 | -2.74828 | -43.77836 | 10313 ft | 328 kts | 304° |
| 2026-04-21 05:25 | -2.73600 | -43.79681 | 10085 ft | 311 kts | 304° |
| 2026-04-21 05:25 | -2.72415 | -43.81460 | 9632 ft | 300 kts | 304° |
| 2026-04-21 05:25 | -2.71256 | -43.83199 | 9469 ft | 303 kts | 304° |
| 2026-04-21 05:25 | -2.70099 | -43.84934 | 9343 ft | 302 kts | 304° |
| 2026-04-21 05:26 | -2.68934 | -43.86682 | 9207 ft | 302 kts | 304° |
| 2026-04-21 05:26 | -2.67772 | -43.88426 | 9042 ft | 300 kts | 304° |
| 2026-04-21 05:26 | -2.66638 | -43.90162 | 8690 ft | 294 kts | 300° |
| 2026-04-21 05:26 | -2.66005 | -43.92048 | 8353 ft | 281 kts | 276° |
| 2026-04-21 05:27 | -2.66116 | -43.93934 | 8026 ft | 264 kts | 258° |
| 2026-04-21 05:27 | -2.66476 | -43.95827 | 7707 ft | 296 kts | 258° |
| 2026-04-21 05:27 | -2.66849 | -43.97931 | 7467 ft | 312 kts | 259° |
| 2026-04-21 05:27 | -2.67199 | -44.00054 | 7411 ft | 305 kts | 260° |
| 2026-04-21 05:28 | -2.67527 | -44.02120 | 7157 ft | 297 kts | 260° |
| 2026-04-21 05:28 | -2.67846 | -44.04152 | 6632 ft | 294 kts | 260° |
| 2026-04-21 05:28 | -2.68215 | -44.06149 | 6062 ft | 290 kts | 255° |
| 2026-04-21 05:28 | -2.68895 | -44.08023 | 5469 ft | 285 kts | 240° |
| 2026-04-21 05:29 | -2.69920 | -44.09680 | 4900 ft | 281 kts | 236° |
| 2026-04-21 05:29 | -2.70978 | -44.11341 | 4356 ft | 276 kts | 236° |
| 2026-04-21 05:29 | -2.71989 | -44.12923 | 4126 ft | 277 kts | 236° |
| 2026-04-21 05:29 | -2.73032 | -44.14548 | 4022 ft | 277 kts | 236° |
| 2026-04-21 05:30 | -2.74070 | -44.16166 | 3999 ft | 276 kts | 236° |
| 2026-04-21 05:30 | -2.75107 | -44.17783 | 3999 ft | 277 kts | 236° |
| 2026-04-21 05:30 | -2.76143 | -44.19398 | 3999 ft | 276 kts | 237° |
| 2026-04-21 05:30 | -2.77084 | -44.21091 | 4000 ft | 277 kts | 243° |
| 2026-04-21 05:31 | -2.77927 | -44.22823 | 3997 ft | 277 kts | 243° |
| 2026-04-21 05:31 | -2.78723 | -44.24574 | 3991 ft | 277 kts | 251° |
| 2026-04-21 05:31 | -2.78914 | -44.26482 | 4002 ft | 278 kts | 277° |
| 2026-04-21 05:31 | -2.78290 | -44.28291 | 4000 ft | 277 kts | 302° |
| 2026-04-21 05:32 | -2.77159 | -44.29849 | 4000 ft | 277 kts | 307° |
| 2026-04-21 05:32 | -2.76028 | -44.31379 | 3968 ft | 277 kts | 307° |
| 2026-04-21 05:32 | -2.74889 | -44.32922 | 3650 ft | 271 kts | 307° |
| 2026-04-21 05:32 | -2.73661 | -44.34304 | 3165 ft | 262 kts | 324° |
| 2026-04-21 05:33 | -2.72055 | -44.35027 | 2717 ft | 247 kts | 352° |
| 2026-04-21 05:33 | -2.70449 | -44.34901 | 2543 ft | 219 kts | 21° |
| 2026-04-21 05:33 | -2.69247 | -44.34059 | 2509 ft | 216 kts | 48° |
| 2026-04-21 05:33 | -2.68384 | -44.32930 | 2471 ft | 190 kts | 59° |
| 2026-04-21 05:34 | -2.67918 | -44.31821 | 2477 ft | 163 kts | 70° |
| 2026-04-21 05:34 | -2.67433 | -44.30769 | 2275 ft | 167 kts | 59° |
| 2026-04-21 05:34 | -2.66735 | -44.29919 | 1959 ft | 155 kts | 44° |
| 2026-04-21 05:34 | -2.65858 | -44.29290 | 1524 ft | 154 kts | 33° |
| 2026-04-21 05:35 | -2.65009 | -44.28688 | 1264 ft | 148 kts | 39° |
| 2026-04-21 05:35 | -2.64189 | -44.28021 | 1140 ft | 152 kts | 40° |
| 2026-04-21 05:35 | -2.63388 | -44.27357 | 949 ft | 150 kts | 41° |
| 2026-04-21 05:35 | -2.62587 | -44.26692 | 792 ft | 149 kts | 41° |
| 2026-04-21 05:36 | -2.61797 | -44.26041 | 579 ft | 147 kts | 40° |
| 2026-04-21 05:36 | -2.61010 | -44.25398 | 414 ft | 150 kts | 41° |
| 2026-04-21 05:36 | -2.60201 | -44.24738 | 285 ft | 149 kts | 39° |
| 2026-04-21 05:36 | -2.59393 | -44.24094 | 171 ft | 146 kts | 40° |
| 2026-04-21 05:37 | -2.58664 | -44.23501 | 173 ft | 141 kts | 39° |
| 2026-04-21 05:37 | -2.57805 | -44.22780 | 408 ft | 178 kts | 42° |
| 2026-04-21 05:37 | -2.56899 | -44.21852 | 1016 ft | 192 kts | 58° |
| 2026-04-21 05:37 | -2.56462 | -44.20577 | 1497 ft | 196 kts | 81° |
| 2026-04-21 05:38 | -2.56303 | -44.19200 | 2080 ft | 203 kts | 84° |
| 2026-04-21 05:38 | -2.56153 | -44.17815 | 3028 ft | 200 kts | 83° |
| 2026-04-21 05:38 | -2.55767 | -44.16479 | 3571 ft | 202 kts | 65° |
| 2026-04-21 05:38 | -2.55114 | -44.15220 | 3843 ft | 204 kts | 62° |
| 2026-04-21 05:39 | -2.54462 | -44.13962 | 3952 ft | 204 kts | 73° |
| 2026-04-21 05:39 | -2.54382 | -44.12544 | 3899 ft | 217 kts | 102° |
| 2026-04-21 05:39 | -2.55050 | -44.11235 | 3971 ft | 212 kts | 132° |
| 2026-04-21 05:39 | -2.56303 | -44.10434 | 4007 ft | 218 kts | 163° |
| 2026-04-21 05:40 | -2.57824 | -44.10259 | 3990 ft | 223 kts | 176° |
| 2026-04-21 05:40 | -2.59366 | -44.10224 | 3985 ft | 222 kts | 186° |
| 2026-04-21 05:40 | -2.60842 | -44.10694 | 3991 ft | 225 kts | 201° |
| 2026-04-21 05:40 | -2.62297 | -44.11270 | 4001 ft | 224 kts | 201° |
| 2026-04-21 05:41 | -2.63754 | -44.11849 | 4000 ft | 224 kts | 201° |
| 2026-04-21 05:41 | -2.65201 | -44.12424 | 3999 ft | 224 kts | 200° |
| 2026-04-21 05:41 | -2.66604 | -44.13061 | 3989 ft | 224 kts | 214° |
| 2026-04-21 05:41 | -2.67804 | -44.14076 | 3994 ft | 227 kts | 220° |
| 2026-04-21 05:42 | -2.68983 | -44.15119 | 3934 ft | 227 kts | 220° |
| 2026-04-21 05:42 | -2.70157 | -44.16156 | 3641 ft | 224 kts | 220° |
| 2026-04-21 05:42 | -2.71332 | -44.17191 | 3237 ft | 225 kts | 220° |
| 2026-04-21 05:42 | -2.72516 | -44.18228 | 2825 ft | 227 kts | 220° |
| 2026-04-21 05:43 | -2.73696 | -44.19253 | 2578 ft | 220 kts | 220° |
| 2026-04-21 05:43 | -2.74829 | -44.20234 | 2508 ft | 214 kts | 220° |
| 2026-04-21 05:43 | -2.75972 | -44.21221 | 2498 ft | 216 kts | 220° |
| 2026-04-21 05:43 | -2.77067 | -44.22235 | 2475 ft | 215 kts | 231° |
| 2026-04-21 05:44 | -2.77651 | -44.23581 | 2499 ft | 216 kts | 263° |
| 2026-04-21 05:44 | -2.77451 | -44.25029 | 2506 ft | 209 kts | 295° |
| 2026-04-21 05:44 | -2.76653 | -44.26235 | 2499 ft | 208 kts | 310° |
| 2026-04-21 05:44 | -2.75781 | -44.27374 | 2495 ft | 199 kts | 307° |
| 2026-04-21 05:45 | -2.75065 | -44.28526 | 2499 ft | 194 kts | 300° |
| 2026-04-21 05:45 | -2.74480 | -44.29748 | 2500 ft | 194 kts | 294° |
| 2026-04-21 05:45 | -2.73992 | -44.31007 | 2497 ft | 194 kts | 291° |
| 2026-04-21 05:45 | -2.73547 | -44.32269 | 2479 ft | 194 kts | 291° |
| 2026-04-21 05:46 | -2.72735 | -44.33303 | 2380 ft | 190 kts | 330° |
| 2026-04-21 05:46 | -2.71468 | -44.33521 | 2295 ft | 187 kts | 12° |
| 2026-04-21 05:46 | -2.70296 | -44.32968 | 2125 ft | 188 kts | 36° |
| 2026-04-21 05:46 | -2.69299 | -44.32149 | 1902 ft | 184 kts | 42° |
| 2026-04-21 05:47 | -2.68364 | -44.31347 | 1798 ft | 166 kts | 40° |
| 2026-04-21 05:47 | -2.67516 | -44.30668 | 1797 ft | 151 kts | 40° |
| 2026-04-21 05:47 | -2.66699 | -44.30003 | 1800 ft | 152 kts | 40° |
| 2026-04-21 05:47 | -2.65872 | -44.29336 | 1800 ft | 152 kts | 40° |
| 2026-04-21 05:48 | -2.65051 | -44.28659 | 1642 ft | 153 kts | 40° |
| 2026-04-21 05:48 | -2.64230 | -44.27999 | 1313 ft | 150 kts | 39° |
| 2026-04-21 05:48 | -2.63396 | -44.27350 | 1071 ft | 151 kts | 39° |
| 2026-04-21 05:48 | -2.62590 | -44.26689 | 839 ft | 151 kts | 40° |
| 2026-04-21 05:49 | -2.61782 | -44.26028 | 727 ft | 149 kts | 41° |
| 2026-04-21 05:49 | -2.60987 | -44.25372 | 466 ft | 146 kts | 40° |
| 2026-04-21 05:49 | -2.60182 | -44.24730 | 299 ft | 148 kts | 39° |
| 2026-04-21 05:49 | -2.59399 | -44.24094 | 170 ft | 143 kts | 39° |
| 2026-04-21 05:50 | -2.58840 | -44.23647 | 168 ft | 59 kts | 39° |
| 2026-04-21 05:50 | -2.58671 | -44.23509 | 170 ft | 21 kts | 39° |
| 2026-04-21 05:50 | -2.58566 | -44.23425 | 169 ft | 6 kts | 38° |
| 2026-04-21 05:50 | -2.58509 | -44.23390 | 169 ft | 3 kts | 23° |
| 2026-04-21 05:51 | -2.58471 | -44.23414 | 168 ft | 0 kts | 317° |
| 2026-04-21 05:51 | -2.58454 | -44.23431 | 169 ft | 5 kts | 315° |
| 2026-04-21 05:51 | -2.58447 | -44.23470 | 169 ft | 7 kts | 277° |
| 2026-04-21 05:51 | -2.58438 | -44.23480 | 169 ft | 3 kts | 305° |
| 2026-04-21 05:52 | -2.58415 | -44.23495 | 169 ft | 5 kts | 333° |
| 2026-04-21 05:52 | -2.58407 | -44.23498 | 169 ft | 0 kts | 339° |